sensor_id;sensor_type;location;lat;lon;timestamp;P1;durP1;ratioP1;P2;durP2;ratioP2
63902;SDS011;50072;50.678;13.938;2023-07-29T00:00:44;2.92;;;1.90;;
63902;SDS011;50072;50.678;13.938;2023-07-29T00:03:24;2.85;;;1.98;;
63902;SDS011;50072;50.678;13.938;2023-07-29T00:05:51;3.88;;;1.90;;
63902;SDS011;50072;50.678;13.938;2023-07-29T00:08:19;2.95;;;2.00;;
63902;SDS011;50072;50.678;13.938;2023-07-29T00:10:44;3.08;;;1.90;;
63902;SDS011;50072;50.678;13.938;2023-07-29T00:13:12;4.32;;;1.90;;
63902;SDS011;50072;50.678;13.938;2023-07-29T00:15:38;4.07;;;2.10;;
63902;SDS011;50072;50.678;13.938;2023-07-29T00:18:04;5.15;;;2.00;;
63902;SDS011;50072;50.678;13.938;2023-07-29T00:20:33;4.85;;;2.08;;
63902;SDS011;50072;50.678;13.938;2023-07-29T00:22:58;5.05;;;2.17;;
63902;SDS011;50072;50.678;13.938;2023-07-29T00:25:33;3.35;;;2.00;;
63902;SDS011;50072;50.678;13.938;2023-07-29T00:28:00;4.60;;;2.40;;
63902;SDS011;50072;50.678;13.938;2023-07-29T00:30:26;4.95;;;2.20;;
63902;SDS011;50072;50.678;13.938;2023-07-29T00:32:52;3.72;;;2.05;;
63902;SDS011;50072;50.678;13.938;2023-07-29T00:35:18;7.38;;;2.10;;
63902;SDS011;50072;50.678;13.938;2023-07-29T00:37:44;4.80;;;2.35;;
63902;SDS011;50072;50.678;13.938;2023-07-29T00:40:21;4.88;;;2.13;;
63902;SDS011;50072;50.678;13.938;2023-07-29T00:42:50;6.40;;;2.30;;
63902;SDS011;50072;50.678;13.938;2023-07-29T00:45:17;3.58;;;2.40;;
63902;SDS011;50072;50.678;13.938;2023-07-29T00:47:43;6.57;;;2.30;;
63902;SDS011;50072;50.678;13.938;2023-07-29T00:50:11;4.00;;;2.38;;
63902;SDS011;50072;50.678;13.938;2023-07-29T00:52:38;4.65;;;2.30;;
63902;SDS011;50072;50.678;13.938;2023-07-29T00:55:04;3.30;;;2.30;;
63902;SDS011;50072;50.678;13.938;2023-07-29T00:57:33;3.10;;;2.28;;
63902;SDS011;50072;50.678;13.938;2023-07-29T01:00:02;3.25;;;2.33;;
63902;SDS011;50072;50.678;13.938;2023-07-29T01:02:30;7.63;;;2.35;;
63902;SDS011;50072;50.678;13.938;2023-07-29T01:05:02;3.22;;;2.22;;
63902;SDS011;50072;50.678;13.938;2023-07-29T01:07:41;4.97;;;2.55;;
63902;SDS011;50072;50.678;13.938;2023-07-29T01:15:53;4.45;;;2.55;;
63902;SDS011;50072;50.678;13.938;2023-07-29T01:18:31;3.72;;;2.45;;
63902;SDS011;50072;50.678;13.938;2023-07-29T01:21:04;4.32;;;2.63;;
63902;SDS011;50072;50.678;13.938;2023-07-29T01:23:34;3.67;;;2.30;;
63902;SDS011;50072;50.678;13.938;2023-07-29T01:26:01;4.43;;;2.28;;
63902;SDS011;50072;50.678;13.938;2023-07-29T01:28:33;5.38;;;2.58;;
63902;SDS011;50072;50.678;13.938;2023-07-29T01:36:38;4.95;;;2.28;;
63902;SDS011;50072;50.678;13.938;2023-07-29T01:39:16;4.70;;;2.20;;
63902;SDS011;50072;50.678;13.938;2023-07-29T01:41:47;4.55;;;2.30;;
63902;SDS011;50072;50.678;13.938;2023-07-29T01:44:16;4.13;;;2.60;;
63902;SDS011;50072;50.678;13.938;2023-07-29T01:49:19;5.00;;;2.17;;
63902;SDS011;50072;50.678;13.938;2023-07-29T01:51:45;6.70;;;2.22;;
63902;SDS011;50072;50.678;13.938;2023-07-29T01:54:11;3.40;;;2.25;;
63902;SDS011;50072;50.678;13.938;2023-07-29T01:56:37;3.60;;;2.38;;
63902;SDS011;50072;50.678;13.938;2023-07-29T01:59:04;4.25;;;2.47;;
63902;SDS011;50072;50.678;13.938;2023-07-29T02:01:31;5.45;;;2.58;;
63902;SDS011;50072;50.678;13.938;2023-07-29T02:03:56;6.07;;;3.05;;
63902;SDS011;50072;50.678;13.938;2023-07-29T02:06:23;5.00;;;2.35;;
63902;SDS011;50072;50.678;13.938;2023-07-29T02:08:48;5.65;;;2.53;;
63902;SDS011;50072;50.678;13.938;2023-07-29T02:11:14;5.20;;;2.78;;
63902;SDS011;50072;50.678;13.938;2023-07-29T02:13:40;4.03;;;2.25;;
63902;SDS011;50072;50.678;13.938;2023-07-29T02:16:06;3.13;;;2.35;;
63902;SDS011;50072;50.678;13.938;2023-07-29T02:18:32;4.95;;;2.30;;
63902;SDS011;50072;50.678;13.938;2023-07-29T02:20:58;10.48;;;2.40;;
63902;SDS011;50072;50.678;13.938;2023-07-29T02:23:24;5.35;;;2.50;;
63902;SDS011;50072;50.678;13.938;2023-07-29T02:25:50;6.18;;;2.60;;
63902;SDS011;50072;50.678;13.938;2023-07-29T02:28:16;4.30;;;2.30;;
63902;SDS011;50072;50.678;13.938;2023-07-29T02:30:42;5.90;;;2.58;;
63902;SDS011;50072;50.678;13.938;2023-07-29T02:33:10;5.97;;;2.50;;
63902;SDS011;50072;50.678;13.938;2023-07-29T02:35:36;5.32;;;2.15;;
63902;SDS011;50072;50.678;13.938;2023-07-29T02:38:02;5.25;;;2.45;;
63902;SDS011;50072;50.678;13.938;2023-07-29T02:40:28;4.00;;;2.33;;
63902;SDS011;50072;50.678;13.938;2023-07-29T02:42:54;3.35;;;2.15;;
63902;SDS011;50072;50.678;13.938;2023-07-29T02:45:20;3.65;;;2.05;;
63902;SDS011;50072;50.678;13.938;2023-07-29T02:47:46;3.80;;;2.40;;
63902;SDS011;50072;50.678;13.938;2023-07-29T02:50:12;3.90;;;2.40;;
63902;SDS011;50072;50.678;13.938;2023-07-29T02:52:39;5.63;;;2.30;;
63902;SDS011;50072;50.678;13.938;2023-07-29T02:55:06;5.55;;;2.58;;
63902;SDS011;50072;50.678;13.938;2023-07-29T02:57:32;4.78;;;2.72;;
63902;SDS011;50072;50.678;13.938;2023-07-29T02:59:58;4.05;;;2.58;;
63902;SDS011;50072;50.678;13.938;2023-07-29T03:02:24;5.28;;;2.83;;
63902;SDS011;50072;50.678;13.938;2023-07-29T03:04:50;5.22;;;2.88;;
63902;SDS011;50072;50.678;13.938;2023-07-29T03:07:16;6.93;;;3.10;;
63902;SDS011;50072;50.678;13.938;2023-07-29T03:09:44;6.07;;;3.08;;
63902;SDS011;50072;50.678;13.938;2023-07-29T03:12:11;4.78;;;2.40;;
63902;SDS011;50072;50.678;13.938;2023-07-29T03:14:38;4.00;;;3.00;;
63902;SDS011;50072;50.678;13.938;2023-07-29T03:17:04;3.65;;;2.70;;
63902;SDS011;50072;50.678;13.938;2023-07-29T03:19:30;4.97;;;2.70;;
63902;SDS011;50072;50.678;13.938;2023-07-29T03:21:56;4.18;;;2.80;;
63902;SDS011;50072;50.678;13.938;2023-07-29T03:24:22;4.78;;;2.65;;
63902;SDS011;50072;50.678;13.938;2023-07-29T03:26:47;5.30;;;2.70;;
63902;SDS011;50072;50.678;13.938;2023-07-29T03:29:13;4.00;;;2.85;;
63902;SDS011;50072;50.678;13.938;2023-07-29T03:31:39;3.42;;;2.10;;
63902;SDS011;50072;50.678;13.938;2023-07-29T03:34:05;5.30;;;2.50;;
63902;SDS011;50072;50.678;13.938;2023-07-29T03:36:30;6.78;;;2.88;;
63902;SDS011;50072;50.678;13.938;2023-07-29T03:38:56;5.13;;;2.58;;
63902;SDS011;50072;50.678;13.938;2023-07-29T03:41:23;9.80;;;3.17;;
63902;SDS011;50072;50.678;13.938;2023-07-29T03:43:55;5.72;;;2.95;;
63902;SDS011;50072;50.678;13.938;2023-07-29T03:46:22;6.80;;;3.10;;
63902;SDS011;50072;50.678;13.938;2023-07-29T03:48:54;6.00;;;2.80;;
63902;SDS011;50072;50.678;13.938;2023-07-29T03:53:54;4.40;;;2.90;;
63902;SDS011;50072;50.678;13.938;2023-07-29T03:56:24;6.03;;;2.97;;
63902;SDS011;50072;50.678;13.938;2023-07-29T03:58:51;5.00;;;3.17;;
63902;SDS011;50072;50.678;13.938;2023-07-29T04:01:19;4.22;;;2.60;;
63902;SDS011;50072;50.678;13.938;2023-07-29T04:03:45;6.65;;;2.80;;
63902;SDS011;50072;50.678;13.938;2023-07-29T04:06:14;5.60;;;3.17;;
63902;SDS011;50072;50.678;13.938;2023-07-29T04:08:40;5.38;;;2.92;;
63902;SDS011;50072;50.678;13.938;2023-07-29T04:13:35;8.80;;;3.20;;
63902;SDS011;50072;50.678;13.938;2023-07-29T04:16:04;7.82;;;3.60;;
63902;SDS011;50072;50.678;13.938;2023-07-29T04:18:31;8.65;;;3.45;;
63902;SDS011;50072;50.678;13.938;2023-07-29T04:21:02;8.10;;;3.30;;
63902;SDS011;50072;50.678;13.938;2023-07-29T04:23:34;8.00;;;3.45;;
63902;SDS011;50072;50.678;13.938;2023-07-29T04:26:00;4.97;;;2.85;;
63902;SDS011;50072;50.678;13.938;2023-07-29T04:28:27;5.75;;;3.28;;
63902;SDS011;50072;50.678;13.938;2023-07-29T04:30:54;5.35;;;3.50;;
63902;SDS011;50072;50.678;13.938;2023-07-29T04:33:26;4.07;;;3.13;;
63902;SDS011;50072;50.678;13.938;2023-07-29T04:35:52;5.35;;;2.95;;
63902;SDS011;50072;50.678;13.938;2023-07-29T04:38:18;4.95;;;3.08;;
63902;SDS011;50072;50.678;13.938;2023-07-29T04:40:45;5.03;;;2.90;;
63902;SDS011;50072;50.678;13.938;2023-07-29T04:43:14;6.18;;;2.97;;
63902;SDS011;50072;50.678;13.938;2023-07-29T04:45:43;5.68;;;3.10;;
63902;SDS011;50072;50.678;13.938;2023-07-29T04:48:09;7.10;;;3.55;;
63902;SDS011;50072;50.678;13.938;2023-07-29T04:50:35;4.90;;;3.05;;
63902;SDS011;50072;50.678;13.938;2023-07-29T04:53:03;6.90;;;3.22;;
63902;SDS011;50072;50.678;13.938;2023-07-29T04:55:30;8.23;;;3.45;;
63902;SDS011;50072;50.678;13.938;2023-07-29T04:57:56;7.35;;;3.38;;
63902;SDS011;50072;50.678;13.938;2023-07-29T05:00:21;4.93;;;3.13;;
63902;SDS011;50072;50.678;13.938;2023-07-29T05:02:47;6.53;;;3.40;;
63902;SDS011;50072;50.678;13.938;2023-07-29T05:05:13;5.57;;;3.53;;
63902;SDS011;50072;50.678;13.938;2023-07-29T05:07:45;5.85;;;3.60;;
63902;SDS011;50072;50.678;13.938;2023-07-29T05:10:11;7.35;;;3.03;;
63902;SDS011;50072;50.678;13.938;2023-07-29T05:12:39;6.03;;;3.40;;
63902;SDS011;50072;50.678;13.938;2023-07-29T05:15:06;6.07;;;3.03;;
63902;SDS011;50072;50.678;13.938;2023-07-29T05:17:33;5.03;;;3.30;;
63902;SDS011;50072;50.678;13.938;2023-07-29T05:19:59;6.88;;;3.47;;
63902;SDS011;50072;50.678;13.938;2023-07-29T05:22:25;8.13;;;3.13;;
63902;SDS011;50072;50.678;13.938;2023-07-29T05:27:22;7.88;;;4.20;;
63902;SDS011;50072;50.678;13.938;2023-07-29T05:29:48;10.35;;;4.53;;
63902;SDS011;50072;50.678;13.938;2023-07-29T05:32:14;8.48;;;4.72;;
63902;SDS011;50072;50.678;13.938;2023-07-29T05:34:40;7.53;;;3.90;;
63902;SDS011;50072;50.678;13.938;2023-07-29T05:37:07;5.80;;;4.03;;
63902;SDS011;50072;50.678;13.938;2023-07-29T05:39:33;7.32;;;4.00;;
63902;SDS011;50072;50.678;13.938;2023-07-29T05:44:31;6.90;;;3.40;;
63902;SDS011;50072;50.678;13.938;2023-07-29T05:46:57;5.57;;;3.03;;
63902;SDS011;50072;50.678;13.938;2023-07-29T05:49:23;5.35;;;3.40;;
63902;SDS011;50072;50.678;13.938;2023-07-29T05:51:49;5.80;;;3.13;;
63902;SDS011;50072;50.678;13.938;2023-07-29T05:54:24;6.85;;;3.63;;
63902;SDS011;50072;50.678;13.938;2023-07-29T05:56:56;6.35;;;3.40;;
63902;SDS011;50072;50.678;13.938;2023-07-29T05:59:22;5.00;;;3.70;;
63902;SDS011;50072;50.678;13.938;2023-07-29T06:01:54;7.38;;;4.13;;
63902;SDS011;50072;50.678;13.938;2023-07-29T06:04:21;5.47;;;3.72;;
63902;SDS011;50072;50.678;13.938;2023-07-29T06:06:54;6.72;;;4.25;;
63902;SDS011;50072;50.678;13.938;2023-07-29T06:09:26;8.88;;;4.55;;
63902;SDS011;50072;50.678;13.938;2023-07-29T06:11:54;7.07;;;4.20;;
63902;SDS011;50072;50.678;13.938;2023-07-29T06:14:19;8.77;;;4.70;;
63902;SDS011;50072;50.678;13.938;2023-07-29T06:16:45;8.23;;;4.72;;
63902;SDS011;50072;50.678;13.938;2023-07-29T06:19:11;8.63;;;5.07;;
63902;SDS011;50072;50.678;13.938;2023-07-29T06:21:38;8.30;;;4.55;;
63902;SDS011;50072;50.678;13.938;2023-07-29T06:24:05;5.65;;;4.07;;
63902;SDS011;50072;50.678;13.938;2023-07-29T06:26:31;8.52;;;4.35;;
63902;SDS011;50072;50.678;13.938;2023-07-29T06:28:56;9.00;;;4.93;;
63902;SDS011;50072;50.678;13.938;2023-07-29T06:31:23;8.02;;;4.13;;
63902;SDS011;50072;50.678;13.938;2023-07-29T06:33:49;9.57;;;4.18;;
63902;SDS011;50072;50.678;13.938;2023-07-29T06:36:15;8.50;;;4.15;;
63902;SDS011;50072;50.678;13.938;2023-07-29T06:38:43;7.63;;;4.10;;
63902;SDS011;50072;50.678;13.938;2023-07-29T06:41:09;6.85;;;4.18;;
63902;SDS011;50072;50.678;13.938;2023-07-29T06:43:35;8.23;;;4.25;;
63902;SDS011;50072;50.678;13.938;2023-07-29T06:46:01;7.35;;;4.47;;
63902;SDS011;50072;50.678;13.938;2023-07-29T06:48:26;7.43;;;4.80;;
63902;SDS011;50072;50.678;13.938;2023-07-29T06:50:52;6.63;;;4.00;;
63902;SDS011;50072;50.678;13.938;2023-07-29T06:55:54;6.80;;;4.15;;
63902;SDS011;50072;50.678;13.938;2023-07-29T06:58:22;10.05;;;4.35;;
63902;SDS011;50072;50.678;13.938;2023-07-29T07:00:48;8.23;;;4.13;;
63902;SDS011;50072;50.678;13.938;2023-07-29T07:03:13;8.50;;;4.20;;
63902;SDS011;50072;50.678;13.938;2023-07-29T07:05:46;5.90;;;3.72;;
63902;SDS011;50072;50.678;13.938;2023-07-29T07:08:12;7.43;;;3.83;;
63902;SDS011;50072;50.678;13.938;2023-07-29T07:10:38;5.80;;;3.60;;
63902;SDS011;50072;50.678;13.938;2023-07-29T07:13:10;7.85;;;3.50;;
63902;SDS011;50072;50.678;13.938;2023-07-29T07:15:36;5.95;;;3.25;;
63902;SDS011;50072;50.678;13.938;2023-07-29T07:18:02;7.47;;;3.25;;
63902;SDS011;50072;50.678;13.938;2023-07-29T07:20:29;5.00;;;2.80;;
63902;SDS011;50072;50.678;13.938;2023-07-29T07:22:55;5.25;;;2.55;;
63902;SDS011;50072;50.678;13.938;2023-07-29T07:25:22;5.55;;;2.40;;
63902;SDS011;50072;50.678;13.938;2023-07-29T07:27:49;4.88;;;2.70;;
63902;SDS011;50072;50.678;13.938;2023-07-29T07:30:15;5.70;;;2.47;;
63902;SDS011;50072;50.678;13.938;2023-07-29T07:35:10;6.35;;;2.53;;
63902;SDS011;50072;50.678;13.938;2023-07-29T07:37:38;3.28;;;2.03;;
63902;SDS011;50072;50.678;13.938;2023-07-29T07:40:05;3.90;;;2.50;;
63902;SDS011;50072;50.678;13.938;2023-07-29T07:42:31;4.85;;;2.35;;
63902;SDS011;50072;50.678;13.938;2023-07-29T07:44:58;4.15;;;2.70;;
63902;SDS011;50072;50.678;13.938;2023-07-29T07:47:24;5.63;;;2.20;;
63902;SDS011;50072;50.678;13.938;2023-07-29T07:49:52;4.80;;;2.22;;
63902;SDS011;50072;50.678;13.938;2023-07-29T07:52:19;7.43;;;2.20;;
63902;SDS011;50072;50.678;13.938;2023-07-29T07:54:45;6.97;;;2.55;;
63902;SDS011;50072;50.678;13.938;2023-07-29T07:57:17;3.97;;;2.20;;
63902;SDS011;50072;50.678;13.938;2023-07-29T07:59:45;4.97;;;2.42;;
63902;SDS011;50072;50.678;13.938;2023-07-29T08:02:16;5.47;;;2.67;;
63902;SDS011;50072;50.678;13.938;2023-07-29T08:04:43;4.43;;;2.10;;
63902;SDS011;50072;50.678;13.938;2023-07-29T08:07:09;5.47;;;2.60;;
63902;SDS011;50072;50.678;13.938;2023-07-29T08:09:36;3.95;;;2.35;;
63902;SDS011;50072;50.678;13.938;2023-07-29T08:12:03;4.95;;;2.13;;
63902;SDS011;50072;50.678;13.938;2023-07-29T08:14:29;5.70;;;2.30;;
63902;SDS011;50072;50.678;13.938;2023-07-29T08:19:54;4.05;;;2.20;;
63902;SDS011;50072;50.678;13.938;2023-07-29T08:22:24;5.10;;;2.28;;
63902;SDS011;50072;50.678;13.938;2023-07-29T08:24:54;7.00;;;2.40;;
63902;SDS011;50072;50.678;13.938;2023-07-29T08:27:25;6.50;;;3.45;;
63902;SDS011;50072;50.678;13.938;2023-07-29T08:29:54;5.00;;;2.75;;
63902;SDS011;50072;50.678;13.938;2023-07-29T08:32:25;8.95;;;3.30;;
63902;SDS011;50072;50.678;13.938;2023-07-29T08:37:18;6.32;;;2.70;;
63902;SDS011;50072;50.678;13.938;2023-07-29T08:39:45;6.05;;;3.20;;
63902;SDS011;50072;50.678;13.938;2023-07-29T08:42:11;4.30;;;2.80;;
63902;SDS011;50072;50.678;13.938;2023-07-29T08:44:42;7.75;;;2.97;;
63902;SDS011;50072;50.678;13.938;2023-07-29T08:49:42;4.65;;;3.08;;
63902;SDS011;50072;50.678;13.938;2023-07-29T08:52:09;4.45;;;2.50;;
63902;SDS011;50072;50.678;13.938;2023-07-29T08:54:36;2.80;;;2.05;;
63902;SDS011;50072;50.678;13.938;2023-07-29T08:57:02;3.78;;;1.85;;
63902;SDS011;50072;50.678;13.938;2023-07-29T08:59:29;2.30;;;1.75;;
63902;SDS011;50072;50.678;13.938;2023-07-29T09:01:55;8.43;;;2.08;;
63902;SDS011;50072;50.678;13.938;2023-07-29T09:04:23;3.80;;;1.70;;
63902;SDS011;50072;50.678;13.938;2023-07-29T09:06:55;3.95;;;1.85;;
63902;SDS011;50072;50.678;13.938;2023-07-29T09:09:23;2.80;;;1.70;;
63902;SDS011;50072;50.678;13.938;2023-07-29T09:11:53;3.72;;;1.50;;
63902;SDS011;50072;50.678;13.938;2023-07-29T09:14:20;4.78;;;1.50;;
63902;SDS011;50072;50.678;13.938;2023-07-29T09:16:46;2.55;;;1.40;;
63902;SDS011;50072;50.678;13.938;2023-07-29T09:19:12;2.30;;;1.42;;
63902;SDS011;50072;50.678;13.938;2023-07-29T09:21:39;3.72;;;1.73;;
63902;SDS011;50072;50.678;13.938;2023-07-29T09:24:07;3.47;;;1.80;;
63902;SDS011;50072;50.678;13.938;2023-07-29T09:26:33;4.15;;;2.00;;
63902;SDS011;50072;50.678;13.938;2023-07-29T09:29:00;2.78;;;1.58;;
63902;SDS011;50072;50.678;13.938;2023-07-29T09:31:26;4.78;;;1.60;;
63902;SDS011;50072;50.678;13.938;2023-07-29T09:33:57;2.20;;;1.27;;
63902;SDS011;50072;50.678;13.938;2023-07-29T09:36:27;3.65;;;1.27;;
63902;SDS011;50072;50.678;13.938;2023-07-29T09:38:53;2.83;;;1.27;;
63902;SDS011;50072;50.678;13.938;2023-07-29T09:41:24;1.77;;;1.17;;
63902;SDS011;50072;50.678;13.938;2023-07-29T09:44:00;2.58;;;1.30;;
63902;SDS011;50072;50.678;13.938;2023-07-29T09:46:33;3.33;;;1.40;;
63902;SDS011;50072;50.678;13.938;2023-07-29T09:49:04;2.13;;;1.20;;
63902;SDS011;50072;50.678;13.938;2023-07-29T09:51:31;2.58;;;1.13;;
63902;SDS011;50072;50.678;13.938;2023-07-29T09:53:57;2.85;;;1.45;;
63902;SDS011;50072;50.678;13.938;2023-07-29T09:56:24;1.95;;;1.40;;
63902;SDS011;50072;50.678;13.938;2023-07-29T09:58:58;1.48;;;1.00;;
63902;SDS011;50072;50.678;13.938;2023-07-29T10:01:24;2.60;;;1.20;;
63902;SDS011;50072;50.678;13.938;2023-07-29T10:03:50;2.38;;;1.00;;
63902;SDS011;50072;50.678;13.938;2023-07-29T10:06:17;4.25;;;1.20;;
63902;SDS011;50072;50.678;13.938;2023-07-29T10:08:45;1.35;;;1.00;;
63902;SDS011;50072;50.678;13.938;2023-07-29T10:11:10;4.50;;;1.40;;
63902;SDS011;50072;50.678;13.938;2023-07-29T10:13:37;2.58;;;1.25;;
63902;SDS011;50072;50.678;13.938;2023-07-29T10:16:03;2.00;;;1.10;;
63902;SDS011;50072;50.678;13.938;2023-07-29T10:18:31;2.20;;;1.05;;
63902;SDS011;50072;50.678;13.938;2023-07-29T10:20:58;1.85;;;1.20;;
63902;SDS011;50072;50.678;13.938;2023-07-29T10:23:26;2.22;;;1.10;;
63902;SDS011;50072;50.678;13.938;2023-07-29T10:26:03;2.35;;;1.20;;
63902;SDS011;50072;50.678;13.938;2023-07-29T10:28:30;1.77;;;0.90;;
63902;SDS011;50072;50.678;13.938;2023-07-29T10:30:59;1.77;;;1.10;;
63902;SDS011;50072;50.678;13.938;2023-07-29T10:33:26;2.70;;;1.20;;
63902;SDS011;50072;50.678;13.938;2023-07-29T10:35:52;2.20;;;1.23;;
63902;SDS011;50072;50.678;13.938;2023-07-29T10:38:24;1.58;;;0.90;;
63902;SDS011;50072;50.678;13.938;2023-07-29T10:40:56;4.40;;;1.30;;
63902;SDS011;50072;50.678;13.938;2023-07-29T10:43:32;2.13;;;1.08;;
63902;SDS011;50072;50.678;13.938;2023-07-29T10:48:43;6.60;;;1.10;;
63902;SDS011;50072;50.678;13.938;2023-07-29T10:51:30;2.65;;;0.80;;
63902;SDS011;50072;50.678;13.938;2023-07-29T10:54:09;2.65;;;1.08;;
63902;SDS011;50072;50.678;13.938;2023-07-29T10:56:37;1.40;;;0.90;;
63902;SDS011;50072;50.678;13.938;2023-07-29T11:01:43;2.63;;;1.10;;
63902;SDS011;50072;50.678;13.938;2023-07-29T11:17:40;3.83;;;1.38;;
63902;SDS011;50072;50.678;13.938;2023-07-29T11:20:06;1.07;;;0.90;;
63902;SDS011;50072;50.678;13.938;2023-07-29T11:22:33;2.40;;;1.00;;
63902;SDS011;50072;50.678;13.938;2023-07-29T11:25:00;1.95;;;1.17;;
63902;SDS011;50072;50.678;13.938;2023-07-29T11:27:28;4.35;;;1.10;;
63902;SDS011;50072;50.678;13.938;2023-07-29T11:29:59;2.20;;;1.00;;
63902;SDS011;50072;50.678;13.938;2023-07-29T11:32:34;1.65;;;0.95;;
63902;SDS011;50072;50.678;13.938;2023-07-29T11:35:10;2.17;;;0.90;;
63902;SDS011;50072;50.678;13.938;2023-07-29T11:40:24;3.05;;;1.00;;
63902;SDS011;50072;50.678;13.938;2023-07-29T11:42:50;4.57;;;1.10;;
63902;SDS011;50072;50.678;13.938;2023-07-29T11:45:19;2.00;;;0.85;;
63902;SDS011;50072;50.678;13.938;2023-07-29T11:47:54;1.80;;;0.82;;
63902;SDS011;50072;50.678;13.938;2023-07-29T11:50:20;2.17;;;0.68;;
63902;SDS011;50072;50.678;13.938;2023-07-29T11:52:51;4.43;;;0.90;;
63902;SDS011;50072;50.678;13.938;2023-07-29T11:55:19;2.20;;;0.80;;
63902;SDS011;50072;50.678;13.938;2023-07-29T11:57:47;1.70;;;0.80;;
63902;SDS011;50072;50.678;13.938;2023-07-29T12:00:19;3.70;;;0.95;;
63902;SDS011;50072;50.678;13.938;2023-07-29T12:02:54;5.53;;;1.33;;
63902;SDS011;50072;50.678;13.938;2023-07-29T12:05:27;5.07;;;1.35;;
63902;SDS011;50072;50.678;13.938;2023-07-29T12:07:54;2.10;;;0.98;;
63902;SDS011;50072;50.678;13.938;2023-07-29T12:10:22;1.77;;;0.90;;
63902;SDS011;50072;50.678;13.938;2023-07-29T12:12:49;1.73;;;0.85;;
63902;SDS011;50072;50.678;13.938;2023-07-29T12:15:23;1.60;;;1.00;;
63902;SDS011;50072;50.678;13.938;2023-07-29T12:17:52;1.77;;;0.70;;
63902;SDS011;50072;50.678;13.938;2023-07-29T12:20:20;1.45;;;0.80;;
63902;SDS011;50072;50.678;13.938;2023-07-29T12:22:51;2.42;;;1.00;;
63902;SDS011;50072;50.678;13.938;2023-07-29T12:25:20;1.77;;;0.90;;
63902;SDS011;50072;50.678;13.938;2023-07-29T12:27:53;4.80;;;1.02;;
63902;SDS011;50072;50.678;13.938;2023-07-29T12:30:22;1.55;;;0.98;;
63902;SDS011;50072;50.678;13.938;2023-07-29T12:32:50;3.80;;;1.17;;
63902;SDS011;50072;50.678;13.938;2023-07-29T12:35:15;1.60;;;1.00;;
63902;SDS011;50072;50.678;13.938;2023-07-29T12:37:41;1.20;;;0.75;;
63902;SDS011;50072;50.678;13.938;2023-07-29T12:40:29;2.35;;;1.10;;
63902;SDS011;50072;50.678;13.938;2023-07-29T12:42:54;1.45;;;1.15;;
63902;SDS011;50072;50.678;13.938;2023-07-29T12:45:21;2.45;;;1.08;;
63902;SDS011;50072;50.678;13.938;2023-07-29T12:47:54;3.38;;;1.00;;
63902;SDS011;50072;50.678;13.938;2023-07-29T12:52:51;1.60;;;0.75;;
63902;SDS011;50072;50.678;13.938;2023-07-29T12:55:24;3.17;;;1.10;;
63902;SDS011;50072;50.678;13.938;2023-07-29T13:00:24;2.25;;;1.02;;
63902;SDS011;50072;50.678;13.938;2023-07-29T13:02:55;2.45;;;1.00;;
63902;SDS011;50072;50.678;13.938;2023-07-29T13:05:24;1.33;;;0.90;;
63902;SDS011;50072;50.678;13.938;2023-07-29T13:07:51;6.70;;;1.23;;
63902;SDS011;50072;50.678;13.938;2023-07-29T13:10:18;2.50;;;1.20;;
63902;SDS011;50072;50.678;13.938;2023-07-29T13:12:45;1.90;;;1.40;;
63902;SDS011;50072;50.678;13.938;2023-07-29T13:15:16;2.97;;;1.50;;
63902;SDS011;50072;50.678;13.938;2023-07-29T13:17:48;3.47;;;1.40;;
63902;SDS011;50072;50.678;13.938;2023-07-29T13:20:20;2.28;;;1.40;;
63902;SDS011;50072;50.678;13.938;2023-07-29T13:25:20;4.25;;;1.50;;
63902;SDS011;50072;50.678;13.938;2023-07-29T13:27:48;2.85;;;1.70;;
63902;SDS011;50072;50.678;13.938;2023-07-29T13:30:14;4.40;;;1.85;;
63902;SDS011;50072;50.678;13.938;2023-07-29T13:32:48;3.42;;;1.52;;
63902;SDS011;50072;50.678;13.938;2023-07-29T13:35:19;5.63;;;2.25;;
63902;SDS011;50072;50.678;13.938;2023-07-29T13:37:53;4.22;;;1.70;;
63902;SDS011;50072;50.678;13.938;2023-07-29T13:40:24;8.32;;;3.30;;
63902;SDS011;50072;50.678;13.938;2023-07-29T13:42:56;21.60;;;11.88;;
63902;SDS011;50072;50.678;13.938;2023-07-29T13:45:23;2.60;;;1.58;;
63902;SDS011;50072;50.678;13.938;2023-07-29T13:47:50;2.85;;;1.10;;
63902;SDS011;50072;50.678;13.938;2023-07-29T13:50:18;2.33;;;1.17;;
63902;SDS011;50072;50.678;13.938;2023-07-29T13:52:44;2.60;;;1.08;;
63902;SDS011;50072;50.678;13.938;2023-07-29T13:55:10;1.40;;;0.88;;
63902;SDS011;50072;50.678;13.938;2023-07-29T13:57:42;2.92;;;1.00;;
63902;SDS011;50072;50.678;13.938;2023-07-29T14:00:18;2.30;;;1.10;;
63902;SDS011;50072;50.678;13.938;2023-07-29T14:02:43;2.63;;;1.30;;
63902;SDS011;50072;50.678;13.938;2023-07-29T14:05:09;1.58;;;1.05;;
63902;SDS011;50072;50.678;13.938;2023-07-29T14:07:37;4.65;;;2.38;;
63902;SDS011;50072;50.678;13.938;2023-07-29T14:10:05;3.78;;;2.13;;
63902;SDS011;50072;50.678;13.938;2023-07-29T14:12:31;2.90;;;1.02;;
63902;SDS011;50072;50.678;13.938;2023-07-29T14:14:57;1.67;;;1.10;;
63902;SDS011;50072;50.678;13.938;2023-07-29T14:17:24;1.75;;;1.30;;
63902;SDS011;50072;50.678;13.938;2023-07-29T14:19:50;4.68;;;2.85;;
63902;SDS011;50072;50.678;13.938;2023-07-29T14:22:17;5.45;;;2.70;;
63902;SDS011;50072;50.678;13.938;2023-07-29T14:24:44;7.57;;;4.53;;
63902;SDS011;50072;50.678;13.938;2023-07-29T14:27:10;5.43;;;2.70;;
63902;SDS011;50072;50.678;13.938;2023-07-29T14:29:37;4.85;;;2.05;;
63902;SDS011;50072;50.678;13.938;2023-07-29T14:32:04;1.92;;;1.00;;
63902;SDS011;50072;50.678;13.938;2023-07-29T14:34:31;6.25;;;3.53;;
63902;SDS011;50072;50.678;13.938;2023-07-29T14:36:56;8.13;;;4.20;;
63902;SDS011;50072;50.678;13.938;2023-07-29T14:39:23;1.27;;;0.80;;
63902;SDS011;50072;50.678;13.938;2023-07-29T14:41:50;3.75;;;0.95;;
63902;SDS011;50072;50.678;13.938;2023-07-29T14:44:16;4.03;;;1.00;;
63902;SDS011;50072;50.678;13.938;2023-07-29T14:46:42;3.45;;;1.67;;
63902;SDS011;50072;50.678;13.938;2023-07-29T14:49:08;2.05;;;0.90;;
63902;SDS011;50072;50.678;13.938;2023-07-29T14:51:34;2.38;;;1.33;;
63902;SDS011;50072;50.678;13.938;2023-07-29T14:54:01;5.07;;;2.58;;
63902;SDS011;50072;50.678;13.938;2023-07-29T14:56:28;3.17;;;1.30;;
63902;SDS011;50072;50.678;13.938;2023-07-29T14:58:54;5.28;;;2.38;;
63902;SDS011;50072;50.678;13.938;2023-07-29T15:01:22;2.35;;;1.35;;
63902;SDS011;50072;50.678;13.938;2023-07-29T15:03:48;2.95;;;1.20;;
63902;SDS011;50072;50.678;13.938;2023-07-29T15:06:16;2.00;;;0.90;;
63902;SDS011;50072;50.678;13.938;2023-07-29T15:08:42;2.70;;;1.23;;
63902;SDS011;50072;50.678;13.938;2023-07-29T15:11:09;2.33;;;1.13;;
63902;SDS011;50072;50.678;13.938;2023-07-29T15:13:37;1.80;;;1.20;;
63902;SDS011;50072;50.678;13.938;2023-07-29T15:16:03;2.63;;;1.15;;
63902;SDS011;50072;50.678;13.938;2023-07-29T15:18:30;2.20;;;1.20;;
63902;SDS011;50072;50.678;13.938;2023-07-29T15:20:59;1.95;;;1.20;;
63902;SDS011;50072;50.678;13.938;2023-07-29T15:23:28;1.60;;;1.00;;
63902;SDS011;50072;50.678;13.938;2023-07-29T15:25:55;1.83;;;1.10;;
63902;SDS011;50072;50.678;13.938;2023-07-29T15:28:21;3.38;;;1.10;;
63902;SDS011;50072;50.678;13.938;2023-07-29T15:30:48;1.85;;;1.08;;
63902;SDS011;50072;50.678;13.938;2023-07-29T15:33:14;2.63;;;0.93;;
63902;SDS011;50072;50.678;13.938;2023-07-29T15:35:40;3.45;;;0.90;;
63902;SDS011;50072;50.678;13.938;2023-07-29T15:38:06;1.65;;;1.10;;
63902;SDS011;50072;50.678;13.938;2023-07-29T15:40:33;4.40;;;1.20;;
63902;SDS011;50072;50.678;13.938;2023-07-29T15:42:59;1.98;;;0.82;;